sensor_id;sensor_type;location;lat;lon;timestamp;P1;durP1;ratioP1;P2;durP2;ratioP2
23384;SDS011;11865;45.394;10.978;2023-04-15T00:01:36;6.35;;;3.63;;
23384;SDS011;11865;45.394;10.978;2023-04-15T00:04:03;5.85;;;3.50;;
23384;SDS011;11865;45.394;10.978;2023-04-15T00:06:31;8.05;;;3.30;;
23384;SDS011;11865;45.394;10.978;2023-04-15T00:08:58;7.25;;;3.60;;
23384;SDS011;11865;45.394;10.978;2023-04-15T00:11:27;6.75;;;3.55;;
23384;SDS011;11865;45.394;10.978;2023-04-15T00:13:54;13.63;;;3.55;;
23384;SDS011;11865;45.394;10.978;2023-04-15T00:16:22;9.57;;;4.43;;
23384;SDS011;11865;45.394;10.978;2023-04-15T00:18:49;11.05;;;4.05;;
23384;SDS011;11865;45.394;10.978;2023-04-15T00:21:17;6.80;;;4.10;;
23384;SDS011;11865;45.394;10.978;2023-04-15T00:23:44;5.20;;;3.65;;
23384;SDS011;11865;45.394;10.978;2023-04-15T00:26:15;5.68;;;3.80;;
23384;SDS011;11865;45.394;10.978;2023-04-15T00:28:43;9.25;;;4.07;;
23384;SDS011;11865;45.394;10.978;2023-04-15T00:31:10;21.17;;;5.32;;
23384;SDS011;11865;45.394;10.978;2023-04-15T00:33:39;15.52;;;5.13;;
23384;SDS011;11865;45.394;10.978;2023-04-15T00:36:06;12.05;;;4.57;;
23384;SDS011;11865;45.394;10.978;2023-04-15T00:38:35;6.97;;;4.47;;
23384;SDS011;11865;45.394;10.978;2023-04-15T00:41:03;15.57;;;4.22;;
23384;SDS011;11865;45.394;10.978;2023-04-15T00:43:31;6.63;;;3.88;;
23384;SDS011;11865;45.394;10.978;2023-04-15T00:45:58;6.40;;;3.78;;
23384;SDS011;11865;45.394;10.978;2023-04-15T00:48:29;13.02;;;4.35;;
23384;SDS011;11865;45.394;10.978;2023-04-15T00:50:58;6.50;;;3.92;;
23384;SDS011;11865;45.394;10.978;2023-04-15T00:53:25;6.50;;;4.03;;
23384;SDS011;11865;45.394;10.978;2023-04-15T00:55:52;6.63;;;4.38;;
23384;SDS011;11865;45.394;10.978;2023-04-15T00:58:20;6.57;;;4.35;;
23384;SDS011;11865;45.394;10.978;2023-04-15T01:00:48;9.65;;;4.85;;
23384;SDS011;11865;45.394;10.978;2023-04-15T01:03:20;7.50;;;3.63;;
23384;SDS011;11865;45.394;10.978;2023-04-15T01:05:47;9.30;;;3.97;;
23384;SDS011;11865;45.394;10.978;2023-04-15T01:08:16;7.35;;;4.43;;
23384;SDS011;11865;45.394;10.978;2023-04-15T01:10:43;7.22;;;4.25;;
23384;SDS011;11865;45.394;10.978;2023-04-15T01:13:11;6.38;;;4.57;;
23384;SDS011;11865;45.394;10.978;2023-04-15T01:15:39;9.13;;;4.30;;
23384;SDS011;11865;45.394;10.978;2023-04-15T01:18:06;7.95;;;4.72;;
23384;SDS011;11865;45.394;10.978;2023-04-15T01:20:36;11.52;;;5.05;;
23384;SDS011;11865;45.394;10.978;2023-04-15T01:23:05;10.75;;;4.47;;
23384;SDS011;11865;45.394;10.978;2023-04-15T01:25:33;8.43;;;4.30;;
23384;SDS011;11865;45.394;10.978;2023-04-15T01:28:01;10.85;;;4.40;;
23384;SDS011;11865;45.394;10.978;2023-04-15T01:30:33;13.15;;;4.53;;
23384;SDS011;11865;45.394;10.978;2023-04-15T01:33:01;9.50;;;4.45;;
23384;SDS011;11865;45.394;10.978;2023-04-15T01:35:29;10.85;;;4.30;;
23384;SDS011;11865;45.394;10.978;2023-04-15T01:37:58;8.23;;;4.35;;
23384;SDS011;11865;45.394;10.978;2023-04-15T01:40:32;10.90;;;4.30;;
23384;SDS011;11865;45.394;10.978;2023-04-15T01:43:01;9.45;;;4.95;;
23384;SDS011;11865;45.394;10.978;2023-04-15T01:45:29;13.88;;;4.65;;
23384;SDS011;11865;45.394;10.978;2023-04-15T01:47:56;12.55;;;5.82;;
23384;SDS011;11865;45.394;10.978;2023-04-15T01:50:24;11.52;;;5.30;;
23384;SDS011;11865;45.394;10.978;2023-04-15T01:52:54;9.07;;;4.78;;
23384;SDS011;11865;45.394;10.978;2023-04-15T01:55:23;8.10;;;4.40;;
23384;SDS011;11865;45.394;10.978;2023-04-15T01:57:50;11.90;;;5.53;;
23384;SDS011;11865;45.394;10.978;2023-04-15T02:00:19;8.85;;;5.28;;
23384;SDS011;11865;45.394;10.978;2023-04-15T02:02:48;12.90;;;5.43;;
23384;SDS011;11865;45.394;10.978;2023-04-15T02:05:15;10.63;;;6.00;;
23384;SDS011;11865;45.394;10.978;2023-04-15T02:07:46;9.25;;;4.85;;
23384;SDS011;11865;45.394;10.978;2023-04-15T02:10:14;12.65;;;5.10;;
23384;SDS011;11865;45.394;10.978;2023-04-15T02:12:42;10.75;;;5.70;;
23384;SDS011;11865;45.394;10.978;2023-04-15T02:15:10;12.02;;;5.72;;
23384;SDS011;11865;45.394;10.978;2023-04-15T02:17:37;8.70;;;5.50;;
23384;SDS011;11865;45.394;10.978;2023-04-15T02:20:07;7.50;;;4.90;;
23384;SDS011;11865;45.394;10.978;2023-04-15T02:22:35;7.47;;;5.03;;
23384;SDS011;11865;45.394;10.978;2023-04-15T02:25:02;34.95;;;10.10;;
23384;SDS011;11865;45.394;10.978;2023-04-15T02:27:31;16.05;;;5.57;;
23384;SDS011;11865;45.394;10.978;2023-04-15T02:29:58;8.70;;;5.47;;
23384;SDS011;11865;45.394;10.978;2023-04-15T02:32:26;9.95;;;5.65;;
23384;SDS011;11865;45.394;10.978;2023-04-15T02:34:55;9.93;;;5.40;;
23384;SDS011;11865;45.394;10.978;2023-04-15T02:37:22;9.00;;;5.40;;
23384;SDS011;11865;45.394;10.978;2023-04-15T02:39:54;8.38;;;5.00;;
23384;SDS011;11865;45.394;10.978;2023-04-15T02:42:22;10.50;;;5.10;;
23384;SDS011;11865;45.394;10.978;2023-04-15T02:44:49;10.38;;;5.28;;
23384;SDS011;11865;45.394;10.978;2023-04-15T02:47:17;9.43;;;5.25;;
23384;SDS011;11865;45.394;10.978;2023-04-15T02:49:44;9.68;;;5.15;;
23384;SDS011;11865;45.394;10.978;2023-04-15T02:52:13;9.93;;;5.40;;
23384;SDS011;11865;45.394;10.978;2023-04-15T02:54:40;9.88;;;5.15;;
23384;SDS011;11865;45.394;10.978;2023-04-15T02:57:08;8.30;;;5.13;;
23384;SDS011;11865;45.394;10.978;2023-04-15T02:59:37;12.73;;;5.50;;
23384;SDS011;11865;45.394;10.978;2023-04-15T03:02:05;8.45;;;4.95;;
23384;SDS011;11865;45.394;10.978;2023-04-15T03:04:34;8.77;;;4.82;;
23384;SDS011;11865;45.394;10.978;2023-04-15T03:07:03;10.18;;;6.07;;
23384;SDS011;11865;45.394;10.978;2023-04-15T03:09:30;11.65;;;5.47;;
23384;SDS011;11865;45.394;10.978;2023-04-15T03:12:01;8.35;;;5.78;;
23384;SDS011;11865;45.394;10.978;2023-04-15T03:14:28;8.38;;;5.05;;
23384;SDS011;11865;45.394;10.978;2023-04-15T03:16:56;8.65;;;5.57;;
23384;SDS011;11865;45.394;10.978;2023-04-15T03:19:25;8.95;;;5.38;;
23384;SDS011;11865;45.394;10.978;2023-04-15T03:21:52;16.88;;;5.85;;
23384;SDS011;11865;45.394;10.978;2023-04-15T03:24:20;8.80;;;5.70;;
23384;SDS011;11865;45.394;10.978;2023-04-15T03:26:47;9.27;;;6.05;;
23384;SDS011;11865;45.394;10.978;2023-04-15T03:29:16;11.85;;;5.70;;
23384;SDS011;11865;45.394;10.978;2023-04-15T03:31:44;11.65;;;5.75;;
23384;SDS011;11865;45.394;10.978;2023-04-15T03:34:11;9.18;;;5.50;;
23384;SDS011;11865;45.394;10.978;2023-04-15T03:36:39;11.98;;;5.72;;
23384;SDS011;11865;45.394;10.978;2023-04-15T03:39:07;11.07;;;5.32;;
23384;SDS011;11865;45.394;10.978;2023-04-15T03:41:34;10.88;;;5.63;;
23384;SDS011;11865;45.394;10.978;2023-04-15T03:44:01;9.98;;;5.20;;
23384;SDS011;11865;45.394;10.978;2023-04-15T03:46:29;9.00;;;5.38;;
23384;SDS011;11865;45.394;10.978;2023-04-15T03:48:57;7.85;;;5.30;;
23384;SDS011;11865;45.394;10.978;2023-04-15T03:51:25;9.95;;;5.85;;
23384;SDS011;11865;45.394;10.978;2023-04-15T03:53:52;10.15;;;5.82;;
23384;SDS011;11865;45.394;10.978;2023-04-15T03:56:19;11.93;;;5.82;;
23384;SDS011;11865;45.394;10.978;2023-04-15T03:58:47;10.88;;;5.97;;
23384;SDS011;11865;45.394;10.978;2023-04-15T04:01:14;11.25;;;5.50;;
23384;SDS011;11865;45.394;10.978;2023-04-15T04:03:42;10.15;;;5.20;;
23384;SDS011;11865;45.394;10.978;2023-04-15T04:06:09;14.43;;;6.45;;
23384;SDS011;11865;45.394;10.978;2023-04-15T04:08:38;9.68;;;6.07;;
23384;SDS011;11865;45.394;10.978;2023-04-15T04:11:05;13.82;;;6.50;;
23384;SDS011;11865;45.394;10.978;2023-04-15T04:13:33;12.52;;;6.13;;
23384;SDS011;11865;45.394;10.978;2023-04-15T04:16:01;11.23;;;6.50;;
23384;SDS011;11865;45.394;10.978;2023-04-15T04:18:30;10.20;;;6.30;;
23384;SDS011;11865;45.394;10.978;2023-04-15T04:20:58;12.20;;;5.97;;
23384;SDS011;11865;45.394;10.978;2023-04-15T04:23:26;11.27;;;6.72;;
23384;SDS011;11865;45.394;10.978;2023-04-15T04:25:54;8.77;;;5.68;;
23384;SDS011;11865;45.394;10.978;2023-04-15T04:28:22;10.95;;;6.82;;
23384;SDS011;11865;45.394;10.978;2023-04-15T04:30:49;11.63;;;6.28;;
23384;SDS011;11865;45.394;10.978;2023-04-15T04:33:16;9.80;;;6.18;;
23384;SDS011;11865;45.394;10.978;2023-04-15T04:35:44;12.02;;;5.60;;
23384;SDS011;11865;45.394;10.978;2023-04-15T04:38:12;9.27;;;5.75;;
23384;SDS011;11865;45.394;10.978;2023-04-15T04:40:39;10.48;;;6.43;;
23384;SDS011;11865;45.394;10.978;2023-04-15T04:43:07;8.27;;;5.55;;
23384;SDS011;11865;45.394;10.978;2023-04-15T04:45:35;8.45;;;5.03;;
23384;SDS011;11865;45.394;10.978;2023-04-15T04:48:02;6.68;;;4.35;;
23384;SDS011;11865;45.394;10.978;2023-04-15T04:50:33;5.95;;;3.75;;
23384;SDS011;11865;45.394;10.978;2023-04-15T04:53:01;8.90;;;4.65;;
23384;SDS011;11865;45.394;10.978;2023-04-15T04:55:28;7.63;;;4.43;;
23384;SDS011;11865;45.394;10.978;2023-04-15T04:57:57;10.13;;;3.97;;
23384;SDS011;11865;45.394;10.978;2023-04-15T05:00:25;9.55;;;4.68;;
23384;SDS011;11865;45.394;10.978;2023-04-15T05:02:52;7.70;;;3.97;;
23384;SDS011;11865;45.394;10.978;2023-04-15T05:05:20;7.90;;;4.07;;
23384;SDS011;11865;45.394;10.978;2023-04-15T05:07:47;16.50;;;5.63;;
23384;SDS011;11865;45.394;10.978;2023-04-15T05:10:16;10.10;;;4.28;;
23384;SDS011;11865;45.394;10.978;2023-04-15T05:12:44;6.05;;;3.95;;
23384;SDS011;11865;45.394;10.978;2023-04-15T05:15:11;10.02;;;4.47;;
23384;SDS011;11865;45.394;10.978;2023-04-15T05:17:39;19.10;;;11.23;;
23384;SDS011;11865;45.394;10.978;2023-04-15T05:20:06;12.60;;;7.00;;
23384;SDS011;11865;45.394;10.978;2023-04-15T05:22:34;13.88;;;6.80;;
23384;SDS011;11865;45.394;10.978;2023-04-15T05:25:02;9.40;;;5.80;;
23384;SDS011;11865;45.394;10.978;2023-04-15T05:27:30;10.40;;;5.13;;
23384;SDS011;11865;45.394;10.978;2023-04-15T05:29:57;5.82;;;4.05;;
23384;SDS011;11865;45.394;10.978;2023-04-15T05:32:25;13.68;;;5.15;;
23384;SDS011;11865;45.394;10.978;2023-04-15T05:34:52;17.65;;;8.75;;
23384;SDS011;11865;45.394;10.978;2023-04-15T05:37:20;10.85;;;5.93;;
23384;SDS011;11865;45.394;10.978;2023-04-15T05:39:48;11.00;;;4.10;;
23384;SDS011;11865;45.394;10.978;2023-04-15T05:42:15;10.98;;;4.07;;
23384;SDS011;11865;45.394;10.978;2023-04-15T05:44:43;6.75;;;3.75;;
23384;SDS011;11865;45.394;10.978;2023-04-15T05:47:10;7.55;;;3.65;;
23384;SDS011;11865;45.394;10.978;2023-04-15T05:49:38;12.52;;;3.58;;
23384;SDS011;11865;45.394;10.978;2023-04-15T05:52:05;13.55;;;5.40;;
23384;SDS011;11865;45.394;10.978;2023-04-15T05:54:33;9.40;;;3.90;;
23384;SDS011;11865;45.394;10.978;2023-04-15T05:57:00;12.45;;;4.32;;
23384;SDS011;11865;45.394;10.978;2023-04-15T05:59:28;11.98;;;3.90;;
23384;SDS011;11865;45.394;10.978;2023-04-15T06:01:55;6.63;;;3.42;;
23384;SDS011;11865;45.394;10.978;2023-04-15T06:04:23;7.90;;;3.22;;
23384;SDS011;11865;45.394;10.978;2023-04-15T06:06:51;6.30;;;3.03;;
23384;SDS011;11865;45.394;10.978;2023-04-15T06:09:18;8.18;;;4.40;;
23384;SDS011;11865;45.394;10.978;2023-04-15T06:11:46;10.05;;;4.30;;
23384;SDS011;11865;45.394;10.978;2023-04-15T06:14:14;5.93;;;3.17;;
23384;SDS011;11865;45.394;10.978;2023-04-15T06:16:41;6.32;;;3.60;;
23384;SDS011;11865;45.394;10.978;2023-04-15T06:19:08;5.40;;;3.30;;
23384;SDS011;11865;45.394;10.978;2023-04-15T06:21:36;7.00;;;3.40;;
23384;SDS011;11865;45.394;10.978;2023-04-15T06:24:04;5.72;;;3.28;;
23384;SDS011;11865;45.394;10.978;2023-04-15T06:26:31;6.18;;;3.40;;
23384;SDS011;11865;45.394;10.978;2023-04-15T06:28:59;5.40;;;3.10;;
23384;SDS011;11865;45.394;10.978;2023-04-15T06:31:27;7.47;;;3.25;;
23384;SDS011;11865;45.394;10.978;2023-04-15T06:33:54;4.82;;;3.03;;
23384;SDS011;11865;45.394;10.978;2023-04-15T06:36:22;4.55;;;2.65;;
23384;SDS011;11865;45.394;10.978;2023-04-15T06:38:49;4.53;;;2.90;;
23384;SDS011;11865;45.394;10.978;2023-04-15T06:41:16;5.30;;;3.22;;
23384;SDS011;11865;45.394;10.978;2023-04-15T06:43:44;3.92;;;2.83;;
23384;SDS011;11865;45.394;10.978;2023-04-15T06:46:11;7.65;;;3.60;;
23384;SDS011;11865;45.394;10.978;2023-04-15T06:48:39;4.10;;;3.00;;
23384;SDS011;11865;45.394;10.978;2023-04-15T06:51:06;8.98;;;3.58;;
23384;SDS011;11865;45.394;10.978;2023-04-15T06:53:34;5.43;;;2.95;;
23384;SDS011;11865;45.394;10.978;2023-04-15T06:58:35;4.55;;;2.92;;
23384;SDS011;11865;45.394;10.978;2023-04-15T07:01:02;4.78;;;2.88;;
23384;SDS011;11865;45.394;10.978;2023-04-15T07:03:30;5.68;;;3.33;;
23384;SDS011;11865;45.394;10.978;2023-04-15T07:05:58;5.65;;;3.20;;
23384;SDS011;11865;45.394;10.978;2023-04-15T07:08:27;5.22;;;3.28;;
23384;SDS011;11865;45.394;10.978;2023-04-15T07:10:54;6.70;;;3.40;;
23384;SDS011;11865;45.394;10.978;2023-04-15T07:13:22;7.53;;;3.50;;
23384;SDS011;11865;45.394;10.978;2023-04-15T07:15:50;4.80;;;2.97;;
23384;SDS011;11865;45.394;10.978;2023-04-15T07:18:17;5.35;;;3.58;;
23384;SDS011;11865;45.394;10.978;2023-04-15T07:20:45;6.35;;;3.13;;
23384;SDS011;11865;45.394;10.978;2023-04-15T07:23:12;11.05;;;3.53;;
23384;SDS011;11865;45.394;10.978;2023-04-15T07:25:40;4.47;;;2.85;;
23384;SDS011;11865;45.394;10.978;2023-04-15T07:28:07;3.55;;;2.50;;
23384;SDS011;11865;45.394;10.978;2023-04-15T07:30:34;4.75;;;2.70;;
23384;SDS011;11865;45.394;10.978;2023-04-15T07:33:02;5.20;;;2.92;;
23384;SDS011;11865;45.394;10.978;2023-04-15T07:35:30;8.35;;;3.83;;
23384;SDS011;11865;45.394;10.978;2023-04-15T07:37:57;5.15;;;2.90;;
23384;SDS011;11865;45.394;10.978;2023-04-15T07:40:24;11.88;;;4.03;;
23384;SDS011;11865;45.394;10.978;2023-04-15T07:42:52;10.23;;;3.95;;
23384;SDS011;11865;45.394;10.978;2023-04-15T07:45:19;5.18;;;2.47;;
23384;SDS011;11865;45.394;10.978;2023-04-15T07:47:47;6.97;;;2.70;;
23384;SDS011;11865;45.394;10.978;2023-04-15T07:50:15;6.30;;;2.70;;
23384;SDS011;11865;45.394;10.978;2023-04-15T07:52:43;6.68;;;3.05;;
23384;SDS011;11865;45.394;10.978;2023-04-15T07:55:10;5.72;;;2.67;;
23384;SDS011;11865;45.394;10.978;2023-04-15T07:57:38;4.85;;;2.70;;
23384;SDS011;11865;45.394;10.978;2023-04-15T08:00:05;4.97;;;2.90;;
23384;SDS011;11865;45.394;10.978;2023-04-15T08:02:39;2.95;;;2.53;;
23384;SDS011;11865;45.394;10.978;2023-04-15T08:05:09;11.50;;;3.28;;
23384;SDS011;11865;45.394;10.978;2023-04-15T08:07:36;4.95;;;2.63;;
23384;SDS011;11865;45.394;10.978;2023-04-15T08:10:05;5.75;;;2.40;;
23384;SDS011;11865;45.394;10.978;2023-04-15T08:12:33;10.57;;;3.33;;
23384;SDS011;11865;45.394;10.978;2023-04-15T08:15:00;6.10;;;2.90;;
23384;SDS011;11865;45.394;10.978;2023-04-15T08:17:28;9.60;;;3.17;;
23384;SDS011;11865;45.394;10.978;2023-04-15T08:19:55;5.60;;;2.50;;
23384;SDS011;11865;45.394;10.978;2023-04-15T08:22:23;5.07;;;3.10;;
23384;SDS011;11865;45.394;10.978;2023-04-15T08:24:50;7.60;;;2.72;;
23384;SDS011;11865;45.394;10.978;2023-04-15T08:27:18;4.32;;;3.00;;
23384;SDS011;11865;45.394;10.978;2023-04-15T08:29:45;10.30;;;4.00;;
23384;SDS011;11865;45.394;10.978;2023-04-15T08:32:13;8.18;;;3.03;;
23384;SDS011;11865;45.394;10.978;2023-04-15T08:34:40;4.95;;;2.78;;
23384;SDS011;11865;45.394;10.978;2023-04-15T08:37:08;7.45;;;2.60;;
23384;SDS011;11865;45.394;10.978;2023-04-15T08:39:38;13.57;;;4.82;;
23384;SDS011;11865;45.394;10.978;2023-04-15T08:42:07;8.30;;;3.80;;
23384;SDS011;11865;45.394;10.978;2023-04-15T08:44:40;14.07;;;4.57;;
23384;SDS011;11865;45.394;10.978;2023-04-15T08:47:08;10.57;;;3.72;;
23384;SDS011;11865;45.394;10.978;2023-04-15T08:49:39;5.68;;;2.70;;
23384;SDS011;11865;45.394;10.978;2023-04-15T08:52:07;9.70;;;4.57;;
23384;SDS011;11865;45.394;10.978;2023-04-15T08:54:35;7.63;;;3.42;;
23384;SDS011;11865;45.394;10.978;2023-04-15T08:57:04;4.05;;;2.85;;
23384;SDS011;11865;45.394;10.978;2023-04-15T08:59:32;4.03;;;3.00;;
23384;SDS011;11865;45.394;10.978;2023-04-15T09:02:01;4.95;;;2.90;;
23384;SDS011;11865;45.394;10.978;2023-04-15T09:04:29;6.47;;;2.53;;
23384;SDS011;11865;45.394;10.978;2023-04-15T09:06:57;4.28;;;3.00;;
23384;SDS011;11865;45.394;10.978;2023-04-15T09:09:24;5.85;;;3.10;;
23384;SDS011;11865;45.394;10.978;2023-04-15T09:11:53;6.15;;;2.92;;
23384;SDS011;11865;45.394;10.978;2023-04-15T09:14:20;8.35;;;3.70;;
23384;SDS011;11865;45.394;10.978;2023-04-15T09:16:57;7.68;;;3.78;;
23384;SDS011;11865;45.394;10.978;2023-04-15T09:19:30;8.90;;;3.97;;
23384;SDS011;11865;45.394;10.978;2023-04-15T09:21:59;8.02;;;3.35;;
23384;SDS011;11865;45.394;10.978;2023-04-15T09:24:37;7.05;;;3.50;;
23384;SDS011;11865;45.394;10.978;2023-04-15T09:27:06;5.85;;;3.30;;
23384;SDS011;11865;45.394;10.978;2023-04-15T09:29:34;8.60;;;3.88;;
23384;SDS011;11865;45.394;10.978;2023-04-15T09:32:09;5.03;;;3.45;;
23384;SDS011;11865;45.394;10.978;2023-04-15T09:34:41;5.78;;;3.38;;
23384;SDS011;11865;45.394;10.978;2023-04-15T09:37:09;8.75;;;4.03;;
23384;SDS011;11865;45.394;10.978;2023-04-15T09:42:15;7.95;;;3.80;;
23384;SDS011;11865;45.394;10.978;2023-04-15T09:44:53;9.38;;;4.20;;
23384;SDS011;11865;45.394;10.978;2023-04-15T09:47:27;6.63;;;3.75;;
23384;SDS011;11865;45.394;10.978;2023-04-15T09:49:58;14.35;;;4.50;;
23384;SDS011;11865;45.394;10.978;2023-04-15T09:52:27;7.40;;;4.40;;
23384;SDS011;11865;45.394;10.978;2023-04-15T09:54:56;7.50;;;3.97;;
23384;SDS011;11865;45.394;10.978;2023-04-15T09:57:32;5.22;;;3.95;;
23384;SDS011;11865;45.394;10.978;2023-04-15T10:00:02;8.10;;;4.07;;
23384;SDS011;11865;45.394;10.978;2023-04-15T10:02:32;8.73;;;3.85;;
23384;SDS011;11865;45.394;10.978;2023-04-15T10:05:00;6.70;;;3.60;;
23384;SDS011;11865;45.394;10.978;2023-04-15T10:07:29;5.95;;;3.60;;
23384;SDS011;11865;45.394;10.978;2023-04-15T10:09:56;4.20;;;3.17;;
23384;SDS011;11865;45.394;10.978;2023-04-15T10:12:28;6.40;;;4.00;;
23384;SDS011;11865;45.394;10.978;2023-04-15T10:15:02;8.77;;;3.92;;
23384;SDS011;11865;45.394;10.978;2023-04-15T10:17:31;7.32;;;4.32;;
23384;SDS011;11865;45.394;10.978;2023-04-15T10:20:02;5.80;;;3.72;;
23384;SDS011;11865;45.394;10.978;2023-04-15T10:22:31;8.02;;;3.85;;
23384;SDS011;11865;45.394;10.978;2023-04-15T10:24:59;8.07;;;3.88;;
23384;SDS011;11865;45.394;10.978;2023-04-15T10:27:28;6.45;;;4.13;;
23384;SDS011;11865;45.394;10.978;2023-04-15T10:29:56;6.00;;;3.88;;
23384;SDS011;11865;45.394;10.978;2023-04-15T10:32:26;7.47;;;3.90;;
23384;SDS011;11865;45.394;10.978;2023-04-15T10:34:53;13.55;;;4.40;;
23384;SDS011;11865;45.394;10.978;2023-04-15T10:37:22;7.82;;;4.40;;
23384;SDS011;11865;45.394;10.978;2023-04-15T10:39:59;11.43;;;4.90;;
23384;SDS011;11865;45.394;10.978;2023-04-15T10:42:33;10.82;;;4.88;;
23384;SDS011;11865;45.394;10.978;2023-04-15T10:45:01;6.88;;;3.90;;
23384;SDS011;11865;45.394;10.978;2023-04-15T10:47:29;13.48;;;5.43;;
23384;SDS011;11865;45.394;10.978;2023-04-15T10:49:59;7.50;;;4.75;;
23384;SDS011;11865;45.394;10.978;2023-04-15T10:52:28;8.88;;;5.35;;
23384;SDS011;11865;45.394;10.978;2023-04-15T10:57:44;7.22;;;4.80;;
23384;SDS011;11865;45.394;10.978;2023-04-15T11:08:08;8.27;;;4.40;;
23384;SDS011;11865;45.394;10.978;2023-04-15T11:13:06;12.82;;;5.82;;
23384;SDS011;11865;45.394;10.978;2023-04-15T11:15:47;11.35;;;5.03;;
23384;SDS011;11865;45.394;10.978;2023-04-15T11:23:17;12.02;;;5.88;;
23384;SDS011;11865;45.394;10.978;2023-04-15T11:25:45;15.65;;;5.70;;
23384;SDS011;11865;45.394;10.978;2023-04-15T11:28:14;7.47;;;5.20;;
23384;SDS011;11865;45.394;10.978;2023-04-15T11:30:41;7.45;;;5.15;;
23384;SDS011;11865;45.394;10.978;2023-04-15T11:33:10;11.93;;;6.18;;
23384;SDS011;11865;45.394;10.978;2023-04-15T11:35:39;7.55;;;4.80;;
23384;SDS011;11865;45.394;10.978;2023-04-15T11:38:08;7.55;;;5.03;;
23384;SDS011;11865;45.394;10.978;2023-04-15T11:40:40;6.05;;;4.95;;
23384;SDS011;11865;45.394;10.978;2023-04-15T11:43:13;6.75;;;4.85;;
23384;SDS011;11865;45.394;10.978;2023-04-15T11:48:24;7.00;;;5.18;;
23384;SDS011;11865;45.394;10.978;2023-04-15T11:50:54;4.88;;;4.38;;
23384;SDS011;11865;45.394;10.978;2023-04-15T11:53:23;7.25;;;5.35;;
23384;SDS011;11865;45.394;10.978;2023-04-15T11:55:52;7.75;;;5.20;;
23384;SDS011;11865;45.394;10.978;2023-04-15T11:58:23;9.13;;;5.32;;
23384;SDS011;11865;45.394;10.978;2023-04-15T12:13:53;6.65;;;4.18;;
23384;SDS011;11865;45.394;10.978;2023-04-15T12:16:23;5.60;;;4.40;;
23384;SDS011;11865;45.394;10.978;2023-04-15T12:18:51;9.27;;;4.80;;
23384;SDS011;11865;45.394;10.978;2023-04-15T12:21:22;7.25;;;4.45;;
23384;SDS011;11865;45.394;10.978;2023-04-15T12:23:55;6.57;;;3.97;;
23384;SDS011;11865;45.394;10.978;2023-04-15T12:26:43;5.15;;;4.03;;
23384;SDS011;11865;45.394;10.978;2023-04-15T12:29:12;7.13;;;4.20;;
23384;SDS011;11865;45.394;10.978;2023-04-15T12:31:45;5.85;;;4.22;;
23384;SDS011;11865;45.394;10.978;2023-04-15T12:34:24;8.75;;;4.15;;
23384;SDS011;11865;45.394;10.978;2023-04-15T12:36:54;7.07;;;3.80;;
23384;SDS011;11865;45.394;10.978;2023-04-15T12:39:22;8.20;;;3.65;;
23384;SDS011;11865;45.394;10.978;2023-04-15T12:41:51;9.75;;;3.78;;
23384;SDS011;11865;45.394;10.978;2023-04-15T12:44:22;4.30;;;3.40;;
23384;SDS011;11865;45.394;10.978;2023-04-15T12:46:50;7.57;;;3.60;;
23384;SDS011;11865;45.394;10.978;2023-04-15T12:49:21;5.90;;;3.67;;
23384;SDS011;11865;45.394;10.978;2023-04-15T12:51:51;6.13;;;3.03;;
23384;SDS011;11865;45.394;10.978;2023-04-15T12:54:20;5.13;;;3.08;;
23384;SDS011;11865;45.394;10.978;2023-04-15T12:56:48;5.40;;;2.90;;
23384;SDS011;11865;45.394;10.978;2023-04-15T12:59:16;8.55;;;3.47;;
23384;SDS011;11865;45.394;10.978;2023-04-15T13:01:44;4.90;;;3.28;;
23384;SDS011;11865;45.394;10.978;2023-04-15T13:04:13;5.40;;;2.97;;
23384;SDS011;11865;45.394;10.978;2023-04-15T13:06:42;5.63;;;3.30;;
23384;SDS011;11865;45.394;10.978;2023-04-15T13:09:10;6.50;;;3.53;;
23384;SDS011;11865;45.394;10.978;2023-04-15T13:11:37;5.97;;;3.70;;
23384;SDS011;11865;45.394;10.978;2023-04-15T13:14:05;5.63;;;3.45;;
23384;SDS011;11865;45.394;10.978;2023-04-15T13:16:34;3.80;;;2.88;;
23384;SDS011;11865;45.394;10.978;2023-04-15T13:19:02;5.68;;;3.00;;
23384;SDS011;11865;45.394;10.978;2023-04-15T13:21:30;4.03;;;2.70;;
23384;SDS011;11865;45.394;10.978;2023-04-15T13:24:02;5.78;;;3.10;;
23384;SDS011;11865;45.394;10.978;2023-04-15T13:26:31;4.32;;;2.45;;
23384;SDS011;11865;45.394;10.978;2023-04-15T13:28:58;5.32;;;2.67;;
23384;SDS011;11865;45.394;10.978;2023-04-15T13:31:26;3.25;;;2.33;;
23384;SDS011;11865;45.394;10.978;2023-04-15T13:33:55;4.63;;;2.35;;
23384;SDS011;11865;45.394;10.978;2023-04-15T13:36:22;13.02;;;4.20;;
23384;SDS011;11865;45.394;10.978;2023-04-15T13:38:50;8.90;;;3.60;;
23384;SDS011;11865;45.394;10.978;2023-04-15T13:41:17;10.25;;;3.28;;
23384;SDS011;11865;45.394;10.978;2023-04-15T13:43:46;6.13;;;2.88;;
23384;SDS011;11865;45.394;10.978;2023-04-15T13:46:14;5.80;;;2.47;;
23384;SDS011;11865;45.394;10.978;2023-04-15T13:48:42;4.30;;;2.25;;
23384;SDS011;11865;45.394;10.978;2023-04-15T13:51:09;3.50;;;1.92;;
23384;SDS011;11865;45.394;10.978;2023-04-15T13:53:36;4.75;;;2.55;;
23384;SDS011;11865;45.394;10.978;2023-04-15T13:56:06;5.38;;;2.45;;
23384;SDS011;11865;45.394;10.978;2023-04-15T13:58:35;5.72;;;2.90;;
23384;SDS011;11865;45.394;10.978;2023-04-15T14:01:03;7.00;;;2.83;;
23384;SDS011;11865;45.394;10.978;2023-04-15T14:03:35;5.63;;;2.47;;
23384;SDS011;11865;45.394;10.978;2023-04-15T14:06:03;8.13;;;2.55;;
23384;SDS011;11865;45.394;10.978;2023-04-15T14:08:32;6.80;;;2.75;;
23384;SDS011;11865;45.394;10.978;2023-04-15T14:10:59;11.63;;;2.90;;
23384;SDS011;11865;45.394;10.978;2023-04-15T14:13:27;6.57;;;2.38;;
23384;SDS011;11865;45.394;10.978;2023-04-15T14:15:55;4.93;;;2.65;;
23384;SDS011;11865;45.394;10.978;2023-04-15T14:18:23;13.07;;;2.88;;
23384;SDS011;11865;45.394;10.978;2023-04-15T14:20:51;6.72;;;3.22;;
23384;SDS011;11865;45.394;10.978;2023-04-15T14:23:18;11.35;;;2.55;;
23384;SDS011;11865;45.394;10.978;2023-04-15T14:25:46;10.77;;;2.85;;
23384;SDS011;11865;45.394;10.978;2023-04-15T14:28:14;3.92;;;1.80;;
23384;SDS011;11865;45.394;10.978;2023-04-15T14:30:42;3.03;;;2.17;;
23384;SDS011;11865;45.394;10.978;2023-04-15T14:33:09;7.93;;;2.53;;
23384;SDS011;11865;45.394;10.978;2023-04-15T14:35:37;4.18;;;2.13;;
23384;SDS011;11865;45.394;10.978;2023-04-15T14:38:06;11.13;;;2.83;;
23384;SDS011;11865;45.394;10.978;2023-04-15T14:40:37;8.00;;;2.35;;
23384;SDS011;11865;45.394;10.978;2023-04-15T14:43:04;5.60;;;2.00;;
23384;SDS011;11865;45.394;10.978;2023-04-15T14:45:32;5.22;;;1.80;;
23384;SDS011;11865;45.394;10.978;2023-04-15T14:48:00;4.18;;;2.00;;
23384;SDS011;11865;45.394;10.978;2023-04-15T14:50:28;6.00;;;2.10;;
23384;SDS011;11865;45.394;10.978;2023-04-15T14:52:55;6.88;;;2.20;;
23384;SDS011;11865;45.394;10.978;2023-04-15T14:55:23;3.97;;;2.17;;
23384;SDS011;11865;45.394;10.978;2023-04-15T14:57:50;2.85;;;1.80;;
23384;SDS011;11865;45.394;10.978;2023-04-15T15:00:18;17.25;;;2.60;;
23384;SDS011;11865;45.394;10.978;2023-04-15T15:02:45;10.85;;;3.22;;
23384;SDS011;11865;45.394;10.978;2023-04-15T15:05:13;4.20;;;1.77;;
23384;SDS011;11865;45.394;10.978;2023-04-15T15:07:42;4.78;;;1.92;;
23384;SDS011;11865;45.394;10.978;2023-04-15T15:10:09;3.10;;;1.42;;
23384;SDS011;11865;45.394;10.978;2023-04-15T15:12:37;3.70;;;2.20;;
23384;SDS011;11865;45.394;10.978;2023-04-15T15:15:04;4.97;;;2.15;;
23384;SDS011;11865;45.394;10.978;2023-04-15T15:17:51;3.45;;;1.88;;